sensor_id;sensor_type;location;lat;lon;timestamp;P1;durP1;ratioP1;P2;durP2;ratioP2
15228;SDS011;7717;47.792;12.076;2023-09-18T00:00:51;4.43;;;4.03;;
15228;SDS011;7717;47.792;12.076;2023-09-18T00:03:21;5.03;;;4.53;;
15228;SDS011;7717;47.792;12.076;2023-09-18T00:05:49;5.13;;;4.63;;
15228;SDS011;7717;47.792;12.076;2023-09-18T00:08:15;4.77;;;4.10;;
15228;SDS011;7717;47.792;12.076;2023-09-18T00:10:48;5.73;;;4.67;;
15228;SDS011;7717;47.792;12.076;2023-09-18T00:13:14;4.53;;;4.13;;
15228;SDS011;7717;47.792;12.076;2023-09-18T00:15:40;5.20;;;4.60;;
15228;SDS011;7717;47.792;12.076;2023-09-18T00:18:06;7.50;;;5.40;;
15228;SDS011;7717;47.792;12.076;2023-09-18T00:20:31;4.70;;;4.30;;
15228;SDS011;7717;47.792;12.076;2023-09-18T00:22:56;5.37;;;4.87;;
15228;SDS011;7717;47.792;12.076;2023-09-18T00:25:24;4.70;;;4.10;;
15228;SDS011;7717;47.792;12.076;2023-09-18T00:27:50;4.40;;;3.93;;
15228;SDS011;7717;47.792;12.076;2023-09-18T00:30:17;4.83;;;4.43;;
15228;SDS011;7717;47.792;12.076;2023-09-18T00:32:42;6.30;;;3.80;;
15228;SDS011;7717;47.792;12.076;2023-09-18T00:35:07;7.33;;;3.70;;
15228;SDS011;7717;47.792;12.076;2023-09-18T00:37:32;4.73;;;4.33;;
15228;SDS011;7717;47.792;12.076;2023-09-18T00:39:58;5.07;;;4.63;;
15228;SDS011;7717;47.792;12.076;2023-09-18T00:42:23;4.13;;;3.80;;
15228;SDS011;7717;47.792;12.076;2023-09-18T00:44:51;5.60;;;4.17;;
15228;SDS011;7717;47.792;12.076;2023-09-18T00:47:16;3.90;;;3.60;;
15228;SDS011;7717;47.792;12.076;2023-09-18T00:49:43;4.33;;;3.93;;
15228;SDS011;7717;47.792;12.076;2023-09-18T00:52:10;4.73;;;3.57;;
15228;SDS011;7717;47.792;12.076;2023-09-18T00:54:35;6.43;;;3.97;;
15228;SDS011;7717;47.792;12.076;2023-09-18T00:57:02;4.10;;;3.70;;
15228;SDS011;7717;47.792;12.076;2023-09-18T00:59:28;5.70;;;3.93;;
15228;SDS011;7717;47.792;12.076;2023-09-18T01:01:53;3.50;;;3.07;;
15228;SDS011;7717;47.792;12.076;2023-09-18T01:04:19;6.77;;;3.17;;
15228;SDS011;7717;47.792;12.076;2023-09-18T01:06:45;3.70;;;3.30;;
15228;SDS011;7717;47.792;12.076;2023-09-18T01:09:11;4.33;;;3.23;;
15228;SDS011;7717;47.792;12.076;2023-09-18T01:16:40;4.17;;;3.43;;
15228;SDS011;7717;47.792;12.076;2023-09-18T01:19:09;6.00;;;3.23;;
15228;SDS011;7717;47.792;12.076;2023-09-18T01:21:34;4.50;;;3.17;;
15228;SDS011;7717;47.792;12.076;2023-09-18T01:24:02;3.30;;;3.00;;
15228;SDS011;7717;47.792;12.076;2023-09-18T01:26:27;4.07;;;3.40;;
15228;SDS011;7717;47.792;12.076;2023-09-18T01:28:53;4.17;;;3.60;;
15228;SDS011;7717;47.792;12.076;2023-09-18T01:31:19;3.50;;;3.13;;
15228;SDS011;7717;47.792;12.076;2023-09-18T01:33:45;4.20;;;3.63;;
15228;SDS011;7717;47.792;12.076;2023-09-18T01:36:12;3.37;;;3.07;;
15228;SDS011;7717;47.792;12.076;2023-09-18T01:38:38;4.10;;;3.43;;
15228;SDS011;7717;47.792;12.076;2023-09-18T01:41:03;3.43;;;3.13;;
15228;SDS011;7717;47.792;12.076;2023-09-18T01:43:29;9.63;;;3.63;;
15228;SDS011;7717;47.792;12.076;2023-09-18T01:45:55;4.43;;;3.60;;
15228;SDS011;7717;47.792;12.076;2023-09-18T01:48:26;5.00;;;3.33;;
15228;SDS011;7717;47.792;12.076;2023-09-18T01:50:52;3.73;;;3.40;;
15228;SDS011;7717;47.792;12.076;2023-09-18T01:53:17;3.87;;;3.50;;
15228;SDS011;7717;47.792;12.076;2023-09-18T01:55:42;5.50;;;3.43;;
15228;SDS011;7717;47.792;12.076;2023-09-18T01:58:08;8.63;;;3.70;;
15228;SDS011;7717;47.792;12.076;2023-09-18T02:00:37;4.30;;;3.30;;
15228;SDS011;7717;47.792;12.076;2023-09-18T02:03:02;6.20;;;3.37;;
15228;SDS011;7717;47.792;12.076;2023-09-18T02:05:29;5.80;;;3.90;;
15228;SDS011;7717;47.792;12.076;2023-09-18T02:07:55;5.47;;;3.13;;
15228;SDS011;7717;47.792;12.076;2023-09-18T02:10:21;5.53;;;3.27;;
15228;SDS011;7717;47.792;12.076;2023-09-18T02:12:46;3.60;;;3.00;;
15228;SDS011;7717;47.792;12.076;2023-09-18T02:15:11;3.50;;;3.20;;
15228;SDS011;7717;47.792;12.076;2023-09-18T02:17:37;4.43;;;3.03;;
15228;SDS011;7717;47.792;12.076;2023-09-18T02:20:03;4.23;;;3.43;;
15228;SDS011;7717;47.792;12.076;2023-09-18T02:22:33;6.17;;;3.70;;
15228;SDS011;7717;47.792;12.076;2023-09-18T02:24:58;3.97;;;3.17;;
15228;SDS011;7717;47.792;12.076;2023-09-18T02:27:24;6.27;;;3.83;;
15228;SDS011;7717;47.792;12.076;2023-09-18T02:29:49;5.53;;;3.17;;
15228;SDS011;7717;47.792;12.076;2023-09-18T02:32:15;5.03;;;2.93;;
15228;SDS011;7717;47.792;12.076;2023-09-18T02:34:41;6.40;;;2.90;;
15228;SDS011;7717;47.792;12.076;2023-09-18T02:37:06;4.13;;;2.90;;
15228;SDS011;7717;47.792;12.076;2023-09-18T02:39:32;3.17;;;2.97;;
15228;SDS011;7717;47.792;12.076;2023-09-18T02:41:58;3.40;;;2.90;;
15228;SDS011;7717;47.792;12.076;2023-09-18T02:44:23;3.37;;;2.67;;
15228;SDS011;7717;47.792;12.076;2023-09-18T02:46:48;5.17;;;3.40;;
15228;SDS011;7717;47.792;12.076;2023-09-18T02:49:13;4.53;;;3.03;;
15228;SDS011;7717;47.792;12.076;2023-09-18T02:51:38;4.73;;;3.40;;
15228;SDS011;7717;47.792;12.076;2023-09-18T02:54:04;4.27;;;3.40;;
15228;SDS011;7717;47.792;12.076;2023-09-18T02:56:29;4.30;;;3.63;;
15228;SDS011;7717;47.792;12.076;2023-09-18T02:58:54;4.77;;;3.43;;
15228;SDS011;7717;47.792;12.076;2023-09-18T03:01:25;4.63;;;2.80;;
15228;SDS011;7717;47.792;12.076;2023-09-18T03:03:52;3.97;;;3.53;;
15228;SDS011;7717;47.792;12.076;2023-09-18T03:06:17;4.67;;;3.47;;
15228;SDS011;7717;47.792;12.076;2023-09-18T03:08:43;5.70;;;4.07;;
15228;SDS011;7717;47.792;12.076;2023-09-18T03:11:11;4.00;;;3.43;;
15228;SDS011;7717;47.792;12.076;2023-09-18T03:13:42;4.97;;;3.97;;
15228;SDS011;7717;47.792;12.076;2023-09-18T03:16:09;3.90;;;3.50;;
15228;SDS011;7717;47.792;12.076;2023-09-18T03:18:34;4.90;;;3.60;;
15228;SDS011;7717;47.792;12.076;2023-09-18T03:21:00;4.23;;;3.67;;
15228;SDS011;7717;47.792;12.076;2023-09-18T03:23:25;4.97;;;3.93;;
15228;SDS011;7717;47.792;12.076;2023-09-18T03:25:50;4.30;;;3.60;;
15228;SDS011;7717;47.792;12.076;2023-09-18T03:28:15;5.13;;;3.93;;
15228;SDS011;7717;47.792;12.076;2023-09-18T03:30:41;4.13;;;3.67;;
15228;SDS011;7717;47.792;12.076;2023-09-18T03:33:06;4.93;;;4.10;;
15228;SDS011;7717;47.792;12.076;2023-09-18T03:35:31;4.63;;;4.17;;
15228;SDS011;7717;47.792;12.076;2023-09-18T03:37:57;6.00;;;4.50;;
15228;SDS011;7717;47.792;12.076;2023-09-18T03:40:22;5.07;;;4.57;;
15228;SDS011;7717;47.792;12.076;2023-09-18T03:42:48;5.23;;;4.63;;
15228;SDS011;7717;47.792;12.076;2023-09-18T03:45:14;5.87;;;5.20;;
15228;SDS011;7717;47.792;12.076;2023-09-18T03:47:42;5.90;;;5.17;;
15228;SDS011;7717;47.792;12.076;2023-09-18T03:50:11;4.87;;;4.37;;
15228;SDS011;7717;47.792;12.076;2023-09-18T03:52:37;5.03;;;4.30;;
15228;SDS011;7717;47.792;12.076;2023-09-18T03:55:03;4.93;;;4.47;;
15228;SDS011;7717;47.792;12.076;2023-09-18T03:57:29;5.63;;;4.93;;
15228;SDS011;7717;47.792;12.076;2023-09-18T03:59:54;5.77;;;5.10;;
15228;SDS011;7717;47.792;12.076;2023-09-18T04:02:21;8.73;;;5.30;;
15228;SDS011;7717;47.792;12.076;2023-09-18T04:04:46;5.40;;;4.90;;
15228;SDS011;7717;47.792;12.076;2023-09-18T04:07:12;5.50;;;4.73;;
15228;SDS011;7717;47.792;12.076;2023-09-18T04:09:42;5.37;;;4.30;;
15228;SDS011;7717;47.792;12.076;2023-09-18T04:12:07;5.87;;;4.50;;
15228;SDS011;7717;47.792;12.076;2023-09-18T04:14:32;4.23;;;3.93;;
15228;SDS011;7717;47.792;12.076;2023-09-18T04:16:58;4.80;;;4.33;;
15228;SDS011;7717;47.792;12.076;2023-09-18T04:19:25;4.40;;;3.80;;
15228;SDS011;7717;47.792;12.076;2023-09-18T04:21:50;4.80;;;3.90;;
15228;SDS011;7717;47.792;12.076;2023-09-18T04:24:15;5.40;;;4.10;;
15228;SDS011;7717;47.792;12.076;2023-09-18T04:26:41;5.40;;;4.60;;
15228;SDS011;7717;47.792;12.076;2023-09-18T04:29:06;6.23;;;4.53;;
15228;SDS011;7717;47.792;12.076;2023-09-18T04:31:31;5.07;;;4.57;;
15228;SDS011;7717;47.792;12.076;2023-09-18T04:33:57;5.40;;;4.37;;
15228;SDS011;7717;47.792;12.076;2023-09-18T04:36:22;4.33;;;3.93;;
15228;SDS011;7717;47.792;12.076;2023-09-18T04:38:47;4.03;;;3.73;;
15228;SDS011;7717;47.792;12.076;2023-09-18T04:41:13;6.50;;;4.37;;
15228;SDS011;7717;47.792;12.076;2023-09-18T04:43:40;6.97;;;4.17;;
15228;SDS011;7717;47.792;12.076;2023-09-18T04:46:05;4.87;;;4.37;;
15228;SDS011;7717;47.792;12.076;2023-09-18T04:48:31;4.17;;;3.73;;
15228;SDS011;7717;47.792;12.076;2023-09-18T04:50:57;6.00;;;4.70;;
15228;SDS011;7717;47.792;12.076;2023-09-18T04:53:22;4.90;;;4.33;;
15228;SDS011;7717;47.792;12.076;2023-09-18T04:55:47;5.90;;;4.73;;
15228;SDS011;7717;47.792;12.076;2023-09-18T04:58:16;5.07;;;4.20;;
15228;SDS011;7717;47.792;12.076;2023-09-18T05:00:42;4.87;;;4.37;;
15228;SDS011;7717;47.792;12.076;2023-09-18T05:03:09;4.80;;;4.40;;
15228;SDS011;7717;47.792;12.076;2023-09-18T05:05:35;6.43;;;4.80;;
15228;SDS011;7717;47.792;12.076;2023-09-18T05:08:01;4.97;;;4.40;;
15228;SDS011;7717;47.792;12.076;2023-09-18T05:10:28;4.97;;;4.47;;
15228;SDS011;7717;47.792;12.076;2023-09-18T05:12:53;7.30;;;4.90;;
15228;SDS011;7717;47.792;12.076;2023-09-18T05:15:23;6.13;;;4.77;;
15228;SDS011;7717;47.792;12.076;2023-09-18T05:17:51;12.33;;;4.60;;
15228;SDS011;7717;47.792;12.076;2023-09-18T05:20:19;5.10;;;4.70;;
15228;SDS011;7717;47.792;12.076;2023-09-18T05:22:44;6.43;;;4.20;;
15228;SDS011;7717;47.792;12.076;2023-09-18T05:25:10;7.20;;;3.97;;
15228;SDS011;7717;47.792;12.076;2023-09-18T05:27:36;5.17;;;4.63;;
15228;SDS011;7717;47.792;12.076;2023-09-18T05:30:09;7.23;;;4.73;;
15228;SDS011;7717;47.792;12.076;2023-09-18T05:32:34;6.53;;;4.00;;
15228;SDS011;7717;47.792;12.076;2023-09-18T05:35:00;9.13;;;4.67;;
15228;SDS011;7717;47.792;12.076;2023-09-18T05:37:30;4.20;;;3.67;;
15228;SDS011;7717;47.792;12.076;2023-09-18T05:39:55;4.57;;;3.70;;
15228;SDS011;7717;47.792;12.076;2023-09-18T05:42:20;6.07;;;4.07;;
15228;SDS011;7717;47.792;12.076;2023-09-18T05:44:46;3.97;;;3.57;;
15228;SDS011;7717;47.792;12.076;2023-09-18T05:47:11;4.70;;;3.60;;
15228;SDS011;7717;47.792;12.076;2023-09-18T05:49:38;4.30;;;3.90;;
15228;SDS011;7717;47.792;12.076;2023-09-18T05:52:03;5.53;;;3.30;;
15228;SDS011;7717;47.792;12.076;2023-09-18T05:54:28;4.10;;;3.70;;
15228;SDS011;7717;47.792;12.076;2023-09-18T05:56:54;4.00;;;3.60;;
15228;SDS011;7717;47.792;12.076;2023-09-18T05:59:19;4.50;;;3.67;;
15228;SDS011;7717;47.792;12.076;2023-09-18T06:01:45;7.43;;;3.80;;
15228;SDS011;7717;47.792;12.076;2023-09-18T06:04:10;4.67;;;4.00;;
15228;SDS011;7717;47.792;12.076;2023-09-18T06:06:35;6.70;;;3.47;;
15228;SDS011;7717;47.792;12.076;2023-09-18T06:09:01;9.97;;;3.90;;
15228;SDS011;7717;47.792;12.076;2023-09-18T06:11:27;7.10;;;3.43;;
15228;SDS011;7717;47.792;12.076;2023-09-18T06:13:52;6.03;;;3.23;;
15228;SDS011;7717;47.792;12.076;2023-09-18T06:16:19;6.20;;;3.17;;
15228;SDS011;7717;47.792;12.076;2023-09-18T06:18:44;4.07;;;2.93;;
15228;SDS011;7717;47.792;12.076;2023-09-18T06:21:09;4.90;;;2.70;;
15228;SDS011;7717;47.792;12.076;2023-09-18T06:23:34;4.80;;;3.10;;
15228;SDS011;7717;47.792;12.076;2023-09-18T06:26:00;4.10;;;3.07;;
15228;SDS011;7717;47.792;12.076;2023-09-18T06:28:26;6.57;;;3.37;;
15228;SDS011;7717;47.792;12.076;2023-09-18T06:30:52;5.00;;;3.10;;
15228;SDS011;7717;47.792;12.076;2023-09-18T06:33:19;5.90;;;3.63;;
15228;SDS011;7717;47.792;12.076;2023-09-18T06:35:44;3.50;;;3.20;;
15228;SDS011;7717;47.792;12.076;2023-09-18T06:38:09;4.37;;;3.40;;
15228;SDS011;7717;47.792;12.076;2023-09-18T06:40:37;4.60;;;3.50;;
15228;SDS011;7717;47.792;12.076;2023-09-18T06:43:02;6.37;;;4.20;;
15228;SDS011;7717;47.792;12.076;2023-09-18T06:45:27;6.87;;;3.17;;
15228;SDS011;7717;47.792;12.076;2023-09-18T06:47:53;4.47;;;3.40;;
15228;SDS011;7717;47.792;12.076;2023-09-18T06:50:19;3.80;;;3.50;;
15228;SDS011;7717;47.792;12.076;2023-09-18T06:52:44;6.20;;;3.53;;
15228;SDS011;7717;47.792;12.076;2023-09-18T06:55:09;5.23;;;3.50;;
15228;SDS011;7717;47.792;12.076;2023-09-18T06:57:35;5.20;;;3.70;;
15228;SDS011;7717;47.792;12.076;2023-09-18T07:00:00;3.50;;;3.20;;
15228;SDS011;7717;47.792;12.076;2023-09-18T07:02:25;4.40;;;3.70;;
15228;SDS011;7717;47.792;12.076;2023-09-18T07:04:50;4.27;;;3.50;;
15228;SDS011;7717;47.792;12.076;2023-09-18T07:07:16;4.67;;;3.77;;
15228;SDS011;7717;47.792;12.076;2023-09-18T07:09:41;5.10;;;3.17;;
15228;SDS011;7717;47.792;12.076;2023-09-18T07:12:07;4.70;;;3.50;;
15228;SDS011;7717;47.792;12.076;2023-09-18T07:14:33;4.03;;;3.33;;
15228;SDS011;7717;47.792;12.076;2023-09-18T07:16:58;6.53;;;3.03;;
15228;SDS011;7717;47.792;12.076;2023-09-18T07:19:27;6.57;;;3.30;;
15228;SDS011;7717;47.792;12.076;2023-09-18T07:21:52;3.03;;;2.83;;
15228;SDS011;7717;47.792;12.076;2023-09-18T07:24:17;3.70;;;3.30;;
15228;SDS011;7717;47.792;12.076;2023-09-18T07:26:43;4.13;;;3.40;;
15228;SDS011;7717;47.792;12.076;2023-09-18T07:29:09;6.37;;;3.10;;
15228;SDS011;7717;47.792;12.076;2023-09-18T07:31:34;5.30;;;2.93;;
15228;SDS011;7717;47.792;12.076;2023-09-18T07:34:00;5.80;;;3.47;;
15228;SDS011;7717;47.792;12.076;2023-09-18T07:36:26;4.47;;;3.60;;
15228;SDS011;7717;47.792;12.076;2023-09-18T07:38:51;4.30;;;3.30;;
15228;SDS011;7717;47.792;12.076;2023-09-18T07:41:16;4.67;;;3.00;;
15228;SDS011;7717;47.792;12.076;2023-09-18T07:43:42;5.03;;;3.20;;
15228;SDS011;7717;47.792;12.076;2023-09-18T07:46:07;5.10;;;3.70;;
15228;SDS011;7717;47.792;12.076;2023-09-18T07:48:32;3.53;;;2.97;;
15228;SDS011;7717;47.792;12.076;2023-09-18T07:50:58;5.87;;;3.30;;
15228;SDS011;7717;47.792;12.076;2023-09-18T07:53:23;5.47;;;3.57;;
15228;SDS011;7717;47.792;12.076;2023-09-18T07:55:54;4.00;;;3.00;;
15228;SDS011;7717;47.792;12.076;2023-09-18T07:58:20;5.03;;;3.07;;
15228;SDS011;7717;47.792;12.076;2023-09-18T08:00:45;6.57;;;3.37;;
15228;SDS011;7717;47.792;12.076;2023-09-18T08:03:11;5.57;;;3.00;;
15228;SDS011;7717;47.792;12.076;2023-09-18T08:05:36;5.77;;;3.13;;
15228;SDS011;7717;47.792;12.076;2023-09-18T08:08:01;4.60;;;3.40;;
15228;SDS011;7717;47.792;12.076;2023-09-18T08:10:30;4.80;;;3.13;;
15228;SDS011;7717;47.792;12.076;2023-09-18T08:12:55;4.47;;;3.30;;
15228;SDS011;7717;47.792;12.076;2023-09-18T08:15:21;9.67;;;2.97;;
15228;SDS011;7717;47.792;12.076;2023-09-18T08:17:46;7.50;;;3.43;;
15228;SDS011;7717;47.792;12.076;2023-09-18T08:20:13;2.93;;;2.13;;
15228;SDS011;7717;47.792;12.076;2023-09-18T08:22:40;6.10;;;3.40;;
15228;SDS011;7717;47.792;12.076;2023-09-18T08:25:06;5.53;;;3.20;;
15228;SDS011;7717;47.792;12.076;2023-09-18T08:27:36;6.73;;;3.33;;
15228;SDS011;7717;47.792;12.076;2023-09-18T08:30:02;9.30;;;4.30;;
15228;SDS011;7717;47.792;12.076;2023-09-18T08:32:28;5.80;;;3.40;;
15228;SDS011;7717;47.792;12.076;2023-09-18T08:34:55;4.67;;;3.27;;
15228;SDS011;7717;47.792;12.076;2023-09-18T08:37:20;7.07;;;2.97;;
15228;SDS011;7717;47.792;12.076;2023-09-18T08:39:45;6.23;;;3.20;;
15228;SDS011;7717;47.792;12.076;2023-09-18T08:42:10;9.13;;;3.37;;
15228;SDS011;7717;47.792;12.076;2023-09-18T08:44:37;7.65;;;4.18;;
15228;SDS011;7717;47.792;12.076;2023-09-18T08:47:03;5.85;;;3.40;;
15228;SDS011;7717;47.792;12.076;2023-09-18T08:49:29;7.50;;;3.38;;
15228;SDS011;7717;47.792;12.076;2023-09-18T08:51:55;7.90;;;3.25;;
15228;SDS011;7717;47.792;12.076;2023-09-18T08:54:21;7.00;;;4.03;;
15228;SDS011;7717;47.792;12.076;2023-09-18T08:56:46;11.25;;;3.20;;
15228;SDS011;7717;47.792;12.076;2023-09-18T08:59:12;6.03;;;3.10;;
15228;SDS011;7717;47.792;12.076;2023-09-18T09:01:38;11.02;;;3.60;;
15228;SDS011;7717;47.792;12.076;2023-09-18T09:04:04;8.23;;;3.17;;
15228;SDS011;7717;47.792;12.076;2023-09-18T09:06:29;9.38;;;3.38;;
15228;SDS011;7717;47.792;12.076;2023-09-18T09:08:54;17.50;;;4.32;;
15228;SDS011;7717;47.792;12.076;2023-09-18T09:11:20;5.97;;;3.65;;
15228;SDS011;7717;47.792;12.076;2023-09-18T09:13:45;6.10;;;3.15;;
15228;SDS011;7717;47.792;12.076;2023-09-18T09:16:11;7.57;;;3.03;;
15228;SDS011;7717;47.792;12.076;2023-09-18T09:18:46;9.10;;;3.53;;
15228;SDS011;7717;47.792;12.076;2023-09-18T09:21:12;7.07;;;3.15;;
15228;SDS011;7717;47.792;12.076;2023-09-18T09:23:47;9.18;;;3.30;;
15228;SDS011;7717;47.792;12.076;2023-09-18T09:26:20;8.25;;;3.30;;
15228;SDS011;7717;47.792;12.076;2023-09-18T09:28:46;8.20;;;2.90;;
15228;SDS011;7717;47.792;12.076;2023-09-18T09:31:11;7.80;;;2.75;;
15228;SDS011;7717;47.792;12.076;2023-09-18T09:33:50;12.32;;;3.50;;
15228;SDS011;7717;47.792;12.076;2023-09-18T09:36:19;6.97;;;3.08;;
15228;SDS011;7717;47.792;12.076;2023-09-18T09:38:44;12.73;;;3.08;;
15228;SDS011;7717;47.792;12.076;2023-09-18T09:41:13;9.77;;;3.17;;
15228;SDS011;7717;47.792;12.076;2023-09-18T09:43:41;6.00;;;2.80;;
15228;SDS011;7717;47.792;12.076;2023-09-18T09:46:07;12.57;;;2.95;;
15228;SDS011;7717;47.792;12.076;2023-09-18T09:48:39;12.25;;;3.38;;
15228;SDS011;7717;47.792;12.076;2023-09-18T09:51:05;6.80;;;3.00;;
15228;SDS011;7717;47.792;12.076;2023-09-18T09:53:46;7.43;;;2.78;;
15228;SDS011;7717;47.792;12.076;2023-09-18T09:56:16;6.38;;;2.90;;
15228;SDS011;7717;47.792;12.076;2023-09-18T09:58:59;11.45;;;3.10;;
15228;SDS011;7717;47.792;12.076;2023-09-18T10:01:24;6.68;;;2.50;;
15228;SDS011;7717;47.792;12.076;2023-09-18T10:03:53;8.38;;;3.08;;
15228;SDS011;7717;47.792;12.076;2023-09-18T10:06:19;10.20;;;3.05;;
15228;SDS011;7717;47.792;12.076;2023-09-18T10:08:44;8.98;;;2.58;;
15228;SDS011;7717;47.792;12.076;2023-09-18T10:11:10;7.80;;;2.53;;
15228;SDS011;7717;47.792;12.076;2023-09-18T10:13:51;8.73;;;2.92;;
15228;SDS011;7717;47.792;12.076;2023-09-18T10:16:18;8.93;;;3.03;;
15228;SDS011;7717;47.792;12.076;2023-09-18T10:18:49;7.18;;;2.63;;
15228;SDS011;7717;47.792;12.076;2023-09-18T10:21:22;7.10;;;2.45;;
15228;SDS011;7717;47.792;12.076;2023-09-18T10:24:02;6.40;;;2.95;;
15228;SDS011;7717;47.792;12.076;2023-09-18T10:26:29;8.43;;;2.92;;
15228;SDS011;7717;47.792;12.076;2023-09-18T10:28:58;8.15;;;2.97;;
15228;SDS011;7717;47.792;12.076;2023-09-18T10:31:28;7.65;;;3.00;;
15228;SDS011;7717;47.792;12.076;2023-09-18T10:33:55;8.93;;;2.72;;
15228;SDS011;7717;47.792;12.076;2023-09-18T10:36:24;7.03;;;2.90;;
15228;SDS011;7717;47.792;12.076;2023-09-18T10:38:50;5.47;;;2.42;;
15228;SDS011;7717;47.792;12.076;2023-09-18T10:41:17;7.95;;;3.13;;
15228;SDS011;7717;47.792;12.076;2023-09-18T10:43:45;11.35;;;3.08;;
15228;SDS011;7717;47.792;12.076;2023-09-18T10:46:11;6.05;;;2.50;;
15228;SDS011;7717;47.792;12.076;2023-09-18T10:48:38;11.63;;;2.90;;
15228;SDS011;7717;47.792;12.076;2023-09-18T10:51:04;6.78;;;3.78;;
15228;SDS011;7717;47.792;12.076;2023-09-18T10:53:31;6.25;;;2.28;;
15228;SDS011;7717;47.792;12.076;2023-09-18T10:55:56;5.95;;;2.78;;
15228;SDS011;7717;47.792;12.076;2023-09-18T10:58:23;7.03;;;2.80;;
15228;SDS011;7717;47.792;12.076;2023-09-18T11:00:49;8.32;;;3.13;;
15228;SDS011;7717;47.792;12.076;2023-09-18T11:03:15;7.85;;;2.72;;
15228;SDS011;7717;47.792;12.076;2023-09-18T11:05:43;6.47;;;2.75;;
15228;SDS011;7717;47.792;12.076;2023-09-18T11:11:00;10.85;;;3.80;;
15228;SDS011;7717;47.792;12.076;2023-09-18T11:13:29;10.63;;;2.88;;
15228;SDS011;7717;47.792;12.076;2023-09-18T11:15:59;6.88;;;2.50;;
15228;SDS011;7717;47.792;12.076;2023-09-18T11:18:26;7.43;;;3.00;;
15228;SDS011;7717;47.792;12.076;2023-09-18T11:21:06;8.77;;;2.80;;
15228;SDS011;7717;47.792;12.076;2023-09-18T11:23:35;5.40;;;2.53;;
15228;SDS011;7717;47.792;12.076;2023-09-18T11:26:06;7.40;;;2.92;;
15228;SDS011;7717;47.792;12.076;2023-09-18T11:28:32;8.85;;;3.30;;
15228;SDS011;7717;47.792;12.076;2023-09-18T11:30:58;8.93;;;3.67;;
15228;SDS011;7717;47.792;12.076;2023-09-18T11:35:56;6.43;;;2.70;;
15228;SDS011;7717;47.792;12.076;2023-09-18T11:38:21;9.52;;;2.60;;
15228;SDS011;7717;47.792;12.076;2023-09-18T11:40:48;8.32;;;2.78;;
15228;SDS011;7717;47.792;12.076;2023-09-18T11:45:55;5.85;;;2.58;;
15228;SDS011;7717;47.792;12.076;2023-09-18T11:48:21;8.55;;;3.13;;
15228;SDS011;7717;47.792;12.076;2023-09-18T11:50:49;7.25;;;2.53;;
15228;SDS011;7717;47.792;12.076;2023-09-18T11:53:16;6.20;;;3.00;;
15228;SDS011;7717;47.792;12.076;2023-09-18T11:55:44;8.48;;;3.72;;
15228;SDS011;7717;47.792;12.076;2023-09-18T11:58:09;6.75;;;2.70;;
15228;SDS011;7717;47.792;12.076;2023-09-18T12:00:35;5.10;;;2.58;;
15228;SDS011;7717;47.792;12.076;2023-09-18T12:03:13;5.60;;;2.90;;
15228;SDS011;7717;47.792;12.076;2023-09-18T12:05:42;6.38;;;2.50;;
15228;SDS011;7717;47.792;12.076;2023-09-18T12:08:07;7.75;;;3.13;;
15228;SDS011;7717;47.792;12.076;2023-09-18T12:10:32;7.05;;;2.55;;
15228;SDS011;7717;47.792;12.076;2023-09-18T12:12:57;8.32;;;2.30;;
15228;SDS011;7717;47.792;12.076;2023-09-18T12:15:23;5.20;;;1.60;;
15228;SDS011;7717;47.792;12.076;2023-09-18T12:17:53;3.78;;;1.52;;
15228;SDS011;7717;47.792;12.076;2023-09-18T12:20:18;2.95;;;1.48;;
15228;SDS011;7717;47.792;12.076;2023-09-18T12:22:46;6.32;;;1.65;;
15228;SDS011;7717;47.792;12.076;2023-09-18T12:25:12;3.70;;;1.30;;
15228;SDS011;7717;47.792;12.076;2023-09-18T12:27:39;3.13;;;0.98;;
15228;SDS011;7717;47.792;12.076;2023-09-18T12:30:04;4.65;;;1.17;;
15228;SDS011;7717;47.792;12.076;2023-09-18T12:32:30;1.83;;;0.80;;
15228;SDS011;7717;47.792;12.076;2023-09-18T12:34:57;1.70;;;0.60;;
15228;SDS011;7717;47.792;12.076;2023-09-18T12:37:23;1.00;;;0.53;;
15228;SDS011;7717;47.792;12.076;2023-09-18T12:39:48;1.90;;;0.90;;
15228;SDS011;7717;47.792;12.076;2023-09-18T12:42:16;1.73;;;0.90;;
15228;SDS011;7717;47.792;12.076;2023-09-18T12:44:42;1.60;;;0.70;;
15228;SDS011;7717;47.792;12.076;2023-09-18T12:47:07;0.90;;;0.53;;
15228;SDS011;7717;47.792;12.076;2023-09-18T12:49:33;2.77;;;0.87;;
15228;SDS011;7717;47.792;12.076;2023-09-18T12:51:59;1.70;;;0.43;;
15228;SDS011;7717;47.792;12.076;2023-09-18T12:54:37;1.10;;;0.57;;
15228;SDS011;7717;47.792;12.076;2023-09-18T12:57:04;1.43;;;0.60;;
15228;SDS011;7717;47.792;12.076;2023-09-18T12:59:34;1.87;;;0.77;;
15228;SDS011;7717;47.792;12.076;2023-09-18T13:02:01;0.67;;;0.30;;
15228;SDS011;7717;47.792;12.076;2023-09-18T13:04:29;1.00;;;0.53;;
15228;SDS011;7717;47.792;12.076;2023-09-18T13:07:14;0.73;;;0.40;;
15228;SDS011;7717;47.792;12.076;2023-09-18T13:09:39;0.83;;;0.20;;
15228;SDS011;7717;47.792;12.076;2023-09-18T13:12:05;2.43;;;0.50;;
15228;SDS011;7717;47.792;12.076;2023-09-18T13:14:56;0.10;;;0.10;;
15228;SDS011;7717;47.792;12.076;2023-09-18T13:17:16;0.40;;;0.40;;
15228;SDS011;7717;47.792;12.076;2023-09-18T13:19:41;1.77;;;0.37;;
15228;SDS011;7717;47.792;12.076;2023-09-18T13:22:06;1.17;;;0.40;;
15228;SDS011;7717;47.792;12.076;2023-09-18T13:24:32;0.37;;;0.37;;
15228;SDS011;7717;47.792;12.076;2023-09-18T13:26:58;0.50;;;0.50;;
15228;SDS011;7717;47.792;12.076;2023-09-18T13:29:26;0.50;;;0.50;;
15228;SDS011;7717;47.792;12.076;2023-09-18T13:31:51;1.37;;;0.50;;
15228;SDS011;7717;47.792;12.076;2023-09-18T13:34:17;0.93;;;0.30;;
15228;SDS011;7717;47.792;12.076;2023-09-18T13:36:43;0.43;;;0.33;;
15228;SDS011;7717;47.792;12.076;2023-09-18T13:39:09;0.20;;;0.20;;
15228;SDS011;7717;47.792;12.076;2023-09-18T13:41:34;1.40;;;0.77;;
15228;SDS011;7717;47.792;12.076;2023-09-18T13:44:00;0.47;;;0.40;;
15228;SDS011;7717;47.792;12.076;2023-09-18T13:46:25;2.33;;;0.70;;
15228;SDS011;7717;47.792;12.076;2023-09-18T13:48:50;1.80;;;0.47;;
15228;SDS011;7717;47.792;12.076;2023-09-18T13:51:16;1.03;;;0.50;;
15228;SDS011;7717;47.792;12.076;2023-09-18T13:53:41;2.40;;;0.53;;
15228;SDS011;7717;47.792;12.076;2023-09-18T13:56:07;0.37;;;0.37;;
15228;SDS011;7717;47.792;12.076;2023-09-18T13:58:32;0.80;;;0.60;;
15228;SDS011;7717;47.792;12.076;2023-09-18T14:00:58;0.67;;;0.40;;
15228;SDS011;7717;47.792;12.076;2023-09-18T14:03:23;0.70;;;0.70;;
15228;SDS011;7717;47.792;12.076;2023-09-18T14:05:49;0.80;;;0.60;;
15228;SDS011;7717;47.792;12.076;2023-09-18T14:08:14;1.03;;;0.57;;
15228;SDS011;7717;47.792;12.076;2023-09-18T14:10:39;0.83;;;0.50;;
15228;SDS011;7717;47.792;12.076;2023-09-18T14:13:05;0.80;;;0.60;;
15228;SDS011;7717;47.792;12.076;2023-09-18T14:15:30;2.37;;;2.17;;
15228;SDS011;7717;47.792;12.076;2023-09-18T14:17:56;2.23;;;2.13;;
15228;SDS011;7717;47.792;12.076;2023-09-18T14:20:21;1.23;;;1.10;;
15228;SDS011;7717;47.792;12.076;2023-09-18T14:22:46;0.80;;;0.60;;
15228;SDS011;7717;47.792;12.076;2023-09-18T14:25:14;2.47;;;1.40;;
15228;SDS011;7717;47.792;12.076;2023-09-18T14:27:40;2.40;;;1.93;;
15228;SDS011;7717;47.792;12.076;2023-09-18T14:30:07;2.40;;;1.27;;
15228;SDS011;7717;47.792;12.076;2023-09-18T14:32:33;2.13;;;1.80;;
15228;SDS011;7717;47.792;12.076;2023-09-18T14:35:00;0.63;;;0.63;;
15228;SDS011;7717;47.792;12.076;2023-09-18T14:37:27;0.83;;;0.60;;
15228;SDS011;7717;47.792;12.076;2023-09-18T14:39:53;1.47;;;0.90;;
15228;SDS011;7717;47.792;12.076;2023-09-18T14:42:18;0.87;;;0.60;;
15228;SDS011;7717;47.792;12.076;2023-09-18T14:44:43;1.50;;;0.80;;
15228;SDS011;7717;47.792;12.076;2023-09-18T14:47:13;2.03;;;1.20;;
15228;SDS011;7717;47.792;12.076;2023-09-18T14:49:38;1.07;;;0.70;;
15228;SDS011;7717;47.792;12.076;2023-09-18T14:52:04;0.50;;;0.50;;
15228;SDS011;7717;47.792;12.076;2023-09-18T14:54:29;1.13;;;0.53;;
15228;SDS011;7717;47.792;12.076;2023-09-18T14:56:54;0.90;;;0.60;;